Time,TemperatureF,DewpointF,PressureIn,WindDirection,WindDirectionDegrees,WindSpeedMPH,WindSpeedGustMPH,Humidity,HourlyPrecipIn,Conditions,Clouds,dailyrainin,SoftwareType,DateUTC
2013-08-29 00:07:00,69.0,65.0,29.90,NNW,332,0.0,4.0,86,0.00,,,0.00,weatherlink.com 1.10,2013-08-29 06:07:00,
2013-08-29 00:22:00,68.9,65.0,29.90,NNW,328,1.0,4.0,87,0.01,,,0.01,weatherlink.com 1.10,2013-08-29 06:22:00,
2013-08-29 00:37:00,68.8,65.0,29.89,North,356,2.0,3.0,87,0.01,,,0.01,weatherlink.com 1.10,2013-08-29 06:37:00,
2013-08-29 00:52:00,68.9,65.0,29.89,NNW,338,2.0,4.0,88,0.01,,,0.01,weatherlink.com 1.10,2013-08-29 06:52:00,
2013-08-29 01:07:00,68.6,65.0,29.89,North,354,3.0,4.0,89,0.02,,,0.02,weatherlink.com 1.10,2013-08-29 07:07:00,
2013-08-29 01:22:00,68.5,66.0,29.89,North,356,3.0,4.0,90,0.01,,,0.02,weatherlink.com 1.10,2013-08-29 07:22:00,
2013-08-29 01:37:00,68.7,66.0,29.89,NNW,341,1.0,3.0,90,0.01,,,0.02,weatherlink.com 1.10,2013-08-29 07:37:00,
2013-08-29 01:52:00,68.8,65.0,29.89,North,356,1.0,3.0,88,0.01,,,0.02,weatherlink.com 1.10,2013-08-29 07:52:00,
2013-08-29 02:07:00,69.4,64.0,29.89,North,359,2.0,3.0,82,0.00,,,0.02,weatherlink.com 1.10,2013-08-29 08:07:00,
2013-08-29 02:22:00,69.6,64.0,29.90,NNE,33,0.0,0.0,83,0.00,,,0.00,weatherlink.com 1.10,2013-08-29 08:22:00,
2013-08-29 02:37:00,69.8,66.0,29.90,WSW,245,1.0,2.0,86,0.00,,,0.00,weatherlink.com 1.10,2013-08-29 08:37:00,
2013-08-29 02:52:00,69.0,66.0,29.90,SE,145,0.0,0.0,90,0.00,,,0.00,weatherlink.com 1.10,2013-08-29 08:52:00,
2013-08-29 03:07:00,68.6,66.0,29.90,SE,146,0.0,0.0,91,0.00,,,0.00,weatherlink.com 1.10,2013-08-29 09:07:00,
2013-08-29 03:22:00,65.6,62.0,29.93,ESE,113,9.0,23.0,87,0.37,,,0.37,weatherlink.com 1.10,2013-08-29 09:22:00,
2013-08-29 03:37:00,63.6,62.0,29.90,East,98,12.0,26.0,93,0.58,,,0.58,weatherlink.com 1.10,2013-08-29 09:37:00,
2013-08-29 03:52:00,64.2,62.0,29.90,ENE,61,9.0,14.0,93,0.59,,,0.59,weatherlink.com 1.10,2013-08-29 09:52:00,
2013-08-29 04:07:00,64.6,63.0,29.90,SE,138,4.0,10.0,94,0.60,,,0.60,weatherlink.com 1.10,2013-08-29 10:07:00,
2013-08-29 04:22:00,65.0,63.0,29.91,SE,127,5.0,10.0,94,0.23,,,0.61,weatherlink.com 1.10,2013-08-29 10:22:00,
2013-08-29 04:37:00,65.2,64.0,29.90,East,88,10.0,13.0,94,0.05,,,0.63,weatherlink.com 1.10,2013-08-29 10:37:00,
2013-08-29 04:52:00,65.4,64.0,29.90,ESE,113,7.0,14.0,94,0.05,,,0.64,weatherlink.com 1.10,2013-08-29 10:52:00,
2013-08-29 05:07:00,65.4,64.0,29.90,ESE,107,6.0,13.0,94,0.05,,,0.65,weatherlink.com 1.10,2013-08-29 11:07:00,
2013-08-29 05:22:00,64.9,63.0,29.90,SE,136,6.0,14.0,94,0.04,,,0.65,weatherlink.com 1.10,2013-08-29 11:22:00,
2013-08-29 05:37:00,64.5,63.0,29.91,ESE,111,11.0,15.0,94,0.02,,,0.65,weatherlink.com 1.10,2013-08-29 11:37:00,
2013-08-29 05:52:00,64.4,63.0,29.91,ENE,70,6.0,15.0,94,0.01,,,0.65,weatherlink.com 1.10,2013-08-29 11:52:00,
2013-08-29 06:07:00,64.5,63.0,29.91,East,83,12.0,13.0,94,0.00,,,0.65,weatherlink.com 1.10,2013-08-29 12:07:00,
2013-08-29 06:22:00,64.5,63.0,29.92,ESE,105,10.0,14.0,94,0.00,,,0.65,weatherlink.com 1.10,2013-08-29 12:22:00,
2013-08-29 06:37:00,64.6,63.0,29.92,East,96,6.0,9.0,95,0.00,,,0.65,weatherlink.com 1.10,2013-08-29 12:37:00,
2013-08-29 06:52:00,65.0,64.0,29.93,SE,141,0.0,1.0,95,0.00,,,0.65,weatherlink.com 1.10,2013-08-29 12:52:00,
2013-08-29 07:07:00,65.3,64.0,29.94,SSE,165,0.0,0.0,95,0.00,,,0.65,weatherlink.com 1.10,2013-08-29 13:07:00,
2013-08-29 07:22:00,65.0,64.0,29.94,East,100,5.0,8.0,95,0.00,,,0.65,weatherlink.com 1.10,2013-08-29 13:22:00,
2013-08-29 07:37:00,65.6,64.0,29.95,SE,135,1.0,8.0,95,0.00,,,0.65,weatherlink.com 1.10,2013-08-29 13:37:00,
2013-08-29 07:52:00,65.7,64.0,29.95,ESE,105,0.0,0.0,95,0.00,,,0.65,weatherlink.com 1.10,2013-08-29 13:52:00,
2013-08-29 08:07:00,65.8,64.0,29.95,ESE,105,0.0,0.0,95,0.00,,,0.65,weatherlink.com 1.10,2013-08-29 14:07:00,
2013-08-29 08:22:00,65.3,64.0,29.95,ESE,105,6.0,11.0,95,0.00,,,0.65,weatherlink.com 1.10,2013-08-29 14:22:00,
2013-08-29 08:37:00,65.6,64.0,29.95,East,83,1.0,11.0,95,0.00,,,0.65,weatherlink.com 1.10,2013-08-29 14:37:00,
2013-08-29 08:52:00,66.7,65.0,29.95,NNW,338,4.0,6.0,95,0.00,,,0.65,weatherlink.com 1.10,2013-08-29 14:52:00,
2013-08-29 09:07:00,65.8,64.0,29.95,East,100,11.0,16.0,95,0.00,,,0.65,weatherlink.com 1.10,2013-08-29 15:07:00,
2013-08-29 09:22:00,65.5,64.0,29.96,East,93,16.0,19.0,95,0.00,,,0.65,weatherlink.com 1.10,2013-08-29 15:22:00,
2013-08-29 09:37:00,65.4,64.0,29.97,East,101,8.0,17.0,95,0.00,,,0.65,weatherlink.com 1.10,2013-08-29 15:37:00,
2013-08-29 09:52:00,65.8,64.0,29.97,East,95,8.0,12.0,95,0.00,,,0.65,weatherlink.com 1.10,2013-08-29 15:52:00,
2013-08-29 10:07:00,66.6,65.0,29.97,ENE,60,7.0,12.0,95,0.00,,,0.65,weatherlink.com 1.10,2013-08-29 16:07:00,
2013-08-29 10:22:00,66.4,64.0,29.97,SE,130,8.0,17.0,92,0.00,,,0.65,weatherlink.com 1.10,2013-08-29 16:22:00,
2013-08-29 10:37:00,67.6,65.0,29.98,SE,141,3.0,14.0,91,0.00,,,0.65,weatherlink.com 1.10,2013-08-29 16:37:00,
2013-08-29 10:53:00,68.1,65.0,29.98,West,271,1.0,5.0,91,0.00,,,0.65,weatherlink.com 1.10,2013-08-29 16:53:00,
2013-08-29 11:08:00,67.7,65.0,29.99,WNW,284,1.0,4.0,92,0.00,,,0.65,weatherlink.com 1.10,2013-08-29 17:08:00,
2013-08-29 11:23:00,67.7,65.0,29.99,WNW,301,0.0,5.0,92,0.00,,,0.65,weatherlink.com 1.10,2013-08-29 17:23:00,
2013-08-29 11:38:00,68.5,66.0,29.99,WNW,301,1.0,1.0,91,0.00,,,0.65,weatherlink.com 1.10,2013-08-29 17:38:00,
2013-08-29 11:53:00,69.3,66.0,29.99,NNE,13,1.0,3.0,89,0.00,,,0.65,weatherlink.com 1.10,2013-08-29 17:53:00,
2013-08-29 12:08:00,70.0,66.0,29.98,North,349,1.0,5.0,86,0.00,,,0.65,weatherlink.com 1.10,2013-08-29 18:08:00,
2013-08-29 12:23:00,71.1,66.0,29.98,North,6,2.0,4.0,84,0.00,,,0.65,weatherlink.com 1.10,2013-08-29 18:23:00,
2013-08-29 12:38:00,73.2,67.0,29.98,NNE,33,2.0,4.0,81,0.00,,,0.65,weatherlink.com 1.10,2013-08-29 18:38:00,
2013-08-29 12:53:00,73.8,67.0,29.97,WNW,295,1.0,6.0,78,0.00,,,0.65,weatherlink.com 1.10,2013-08-29 18:53:00,
2013-08-29 13:08:00,75.4,67.0,29.97,WNW,284,1.0,3.0,74,0.00,,,0.65,weatherlink.com 1.10,2013-08-29 19:08:00,
2013-08-29 13:23:00,77.2,67.0,29.96,WNW,287,2.0,4.0,71,0.00,,,0.65,weatherlink.com 1.10,2013-08-29 19:23:00,
2013-08-29 13:38:00,76.4,66.0,29.96,WNW,282,2.0,6.0,71,0.00,,,0.65,weatherlink.com 1.10,2013-08-29 19:38:00,
2013-08-29 13:53:00,75.5,66.0,29.95,West,266,1.0,4.0,72,0.00,,,0.65,weatherlink.com 1.10,2013-08-29 19:53:00,
2013-08-29 14:08:00,75.1,66.0,29.95,West,269,5.0,5.0,73,0.00,,,0.65,weatherlink.com 1.10,2013-08-29 20:08:00,
2013-08-29 14:23:00,75.1,65.0,29.94,NNW,328,1.0,3.0,71,0.00,,,0.65,weatherlink.com 1.10,2013-08-29 20:23:00,
2013-08-29 14:38:00,75.2,65.0,29.94,NW,311,1.0,3.0,71,0.00,,,0.65,weatherlink.com 1.10,2013-08-29 20:38:00,
2013-08-29 14:53:00,75.3,65.0,29.93,WNW,288,1.0,2.0,70,0.00,,,0.65,weatherlink.com 1.10,2013-08-29 20:53:00,
2013-08-29 15:08:00,75.5,65.0,29.93,West,262,1.0,3.0,69,0.00,,,0.65,weatherlink.com 1.10,2013-08-29 21:08:00,
2013-08-29 15:23:00,75.6,65.0,29.92,West,269,0.0,0.0,70,0.00,,,0.65,weatherlink.com 1.10,2013-08-29 21:23:00,
2013-08-29 15:38:00,75.8,65.0,29.92,North,9,0.0,2.0,69,0.00,,,0.65,weatherlink.com 1.10,2013-08-29 21:38:00,
2013-08-29 15:53:00,76.1,65.0,29.91,WNW,298,1.0,4.0,68,0.00,,,0.65,weatherlink.com 1.10,2013-08-29 21:53:00,
2013-08-29 16:08:00,76.9,65.0,29.91,West,262,0.0,2.0,67,0.00,,,0.65,weatherlink.com 1.10,2013-08-29 22:08:00,
2013-08-29 16:23:00,76.7,65.0,29.90,West,266,0.0,0.0,67,0.00,,,0.65,weatherlink.com 1.10,2013-08-29 22:23:00,
2013-08-29 16:38:00,76.6,64.0,29.90,WNW,297,0.0,0.0,66,0.00,,,0.65,weatherlink.com 1.10,2013-08-29 22:38:00,
2013-08-29 16:53:00,76.8,65.0,29.90,West,277,0.0,0.0,67,0.00,,,0.65,weatherlink.com 1.10,2013-08-29 22:53:00,
2013-08-29 17:08:00,77.3,65.0,29.89,West,263,0.0,0.0,66,0.00,,,0.65,weatherlink.com 1.10,2013-08-29 23:08:00,
2013-08-29 17:23:00,77.2,65.0,29.89,West,262,0.0,0.0,66,0.00,,,0.65,weatherlink.com 1.10,2013-08-29 23:23:00,
2013-08-29 17:38:00,76.9,65.0,29.89,West,262,0.0,0.0,67,0.00,,,0.65,weatherlink.com 1.10,2013-08-29 23:38:00,
2013-08-29 17:53:00,76.5,65.0,29.89,WNW,293,0.0,2.0,68,0.00,,,0.65,weatherlink.com 1.10,2013-08-29 23:53:00,
2013-08-29 18:08:00,76.3,65.0,29.90,West,281,0.0,2.0,67,0.00,,,0.65,weatherlink.com 1.10,2013-08-30 00:08:00,
2013-08-29 18:23:00,76.1,64.0,29.90,West,266,0.0,0.0,66,0.00,,,0.65,weatherlink.com 1.10,2013-08-30 00:23:00,
2013-08-29 18:38:00,75.9,65.0,29.89,West,277,0.0,0.0,68,0.00,,,0.65,weatherlink.com 1.10,2013-08-30 00:38:00,
2013-08-29 18:53:00,75.4,65.0,29.89,West,276,0.0,0.0,69,0.00,,,0.65,weatherlink.com 1.10,2013-08-30 00:53:00,
2013-08-29 19:08:00,74.8,65.0,29.89,West,277,0.0,0.0,71,0.00,,,0.65,weatherlink.com 1.10,2013-08-30 01:08:00,
2013-08-29 19:23:00,74.2,65.0,29.90,West,277,0.0,0.0,72,0.00,,,0.65,weatherlink.com 1.10,2013-08-30 01:23:00,
2013-08-29 19:38:00,73.6,65.0,29.90,NNW,347,0.0,0.0,74,0.00,,,0.65,weatherlink.com 1.10,2013-08-30 01:38:00,
2013-08-29 19:53:00,73.3,65.0,29.91,North,4,0.0,0.0,74,0.00,,,0.65,weatherlink.com 1.10,2013-08-30 01:53:00,
2013-08-29 20:08:00,73.1,64.0,29.91,North,1,0.0,0.0,74,0.00,,,0.65,weatherlink.com 1.10,2013-08-30 02:08:00,
2013-08-29 20:23:00,72.7,65.0,29.91,North,359,0.0,0.0,76,0.00,,,0.65,weatherlink.com 1.10,2013-08-30 02:23:00,
2013-08-29 20:38:00,72.6,64.0,29.91,North,9,3.0,3.0,75,0.00,,,0.65,weatherlink.com 1.10,2013-08-30 02:38:00,
2013-08-29 20:53:00,72.3,65.0,29.92,North,354,2.0,2.0,77,0.00,,,0.65,weatherlink.com 1.10,2013-08-30 02:53:00,
2013-08-29 21:08:00,72.6,63.0,29.92,North,352,2.0,3.0,73,0.00,,,0.65,weatherlink.com 1.10,2013-08-30 03:08:00,
2013-08-29 21:23:00,73.4,62.0,29.93,North,360,4.0,4.0,68,0.00,,,0.65,weatherlink.com 1.10,2013-08-30 03:23:00,
2013-08-29 21:38:00,73.6,62.0,29.93,North,359,3.0,4.0,66,0.00,,,0.65,weatherlink.com 1.10,2013-08-30 03:38:00,
2013-08-29 21:53:00,73.2,61.0,29.93,NNE,19,1.0,4.0,66,0.00,,,0.65,weatherlink.com 1.10,2013-08-30 03:53:00,
2013-08-29 22:08:00,73.1,61.0,29.93,North,360,4.0,4.0,65,0.00,,,0.65,weatherlink.com 1.10,2013-08-30 04:08:00,
2013-08-29 22:23:00,72.9,62.0,29.93,North,354,2.0,3.0,68,0.00,,,0.65,weatherlink.com 1.10,2013-08-30 04:23:00,
2013-08-29 22:38:00,72.6,62.0,29.94,North,352,0.0,3.0,69,0.00,,,0.65,weatherlink.com 1.10,2013-08-30 04:38:00,
2013-08-29 22:53:00,72.5,61.0,29.93,North,11,0.0,0.0,68,0.00,,,0.65,weatherlink.com 1.10,2013-08-30 04:53:00,
2013-08-29 23:08:00,72.5,63.0,29.94,North,349,0.0,0.0,71,0.00,,,0.65,weatherlink.com 1.10,2013-08-30 05:08:00,
2013-08-29 23:23:00,72.2,63.0,29.93,NNW,335,1.0,2.0,73,0.00,,,0.65,weatherlink.com 1.10,2013-08-30 05:23:00,
2013-08-29 23:38:00,72.6,63.0,29.93,North,5,2.0,4.0,72,0.00,,,0.65,weatherlink.com 1.10,2013-08-30 05:38:00,
2013-08-29 23:53:00,72.2,63.0,29.93,North,358,1.0,4.0,73,0.00,,,0.65,weatherlink.com 1.10,2013-08-30 05:53:00,